Terminal Aerodrome Forecast
Issued by NWS Pittsburgh, PA

Current Version | Previous Version | Graphics & Text | Print | Product List | Glossary On
Versions: 1 2 3 4 5 6 7 8 9 10 11 12 13 14 15 16 17 18 19 20 21 22 23 24 25 26 27 28 29 30 31
203
FTUS41 KPBZ 160522
TAFPIT
TAF
KPIT 160522Z 1606/1712 00000KT P6SM BKN200
     FM161400 10005KT P6SM BKN100
     FM162100 10003KT P6SM OVC025
     FM170000 11003KT P6SM OVC010
     FM170800 14005KT 2SM -RA BR OVC008=

USA.gov is the U.S. government's official web portal to all federal, state and local government web resources and services.